createdAt,value
2022-12-01T00:01:16.406Z,82.67
2022-12-01T00:03:43.072Z,83.55
2022-12-01T00:06:17.963Z,83.68
2022-12-01T00:09:05.053Z,83.93
2022-12-01T00:11:33.073Z,83.58
2022-12-01T00:13:59.674Z,85.12
2022-12-01T00:16:26.328Z,85.23
2022-12-01T00:18:53.256Z,84.60
2022-12-01T00:21:23.005Z,85.58
2022-12-01T00:23:55.182Z,85.23
2022-12-01T00:26:22.738Z,84.30
2022-12-01T00:28:51.214Z,83.64
2022-12-01T00:31:18.080Z,83.83
2022-12-01T00:33:44.742Z,83.65
2022-12-01T00:36:11.485Z,83.27
2022-12-01T00:38:38.873Z,83.19
2022-12-01T00:41:05.639Z,81.85
2022-12-01T00:43:32.580Z,82.47
2022-12-01T00:45:59.456Z,82.75
2022-12-01T00:48:26.071Z,83.50
2022-12-01T00:50:53.571Z,83.20
2022-12-01T00:53:20.878Z,83.23
2022-12-01T00:55:47.467Z,83.10
2022-12-01T00:58:14.030Z,82.25
2022-12-01T01:00:40.634Z,82.91
2022-12-01T01:03:07.712Z,82.32
2022-12-01T01:05:42.024Z,80.86
2022-12-01T01:08:13.438Z,81.89
2022-12-01T01:10:41.283Z,82.20
2022-12-01T01:13:07.846Z,84.72
2022-12-01T01:15:34.513Z,85.00
2022-12-01T01:18:01.622Z,85.50
2022-12-01T01:20:28.863Z,84.47
2022-12-01T01:22:55.420Z,85.09
2022-12-01T01:25:22.835Z,86.55
2022-12-01T01:27:49.783Z,87.73
2022-12-01T01:30:16.897Z,88.03
2022-12-01T01:32:43.480Z,88.68
2022-12-01T01:35:10.097Z,88.74
2022-12-01T01:37:36.622Z,88.82
2022-12-01T01:40:03.442Z,88.73
2022-12-01T01:42:30.024Z,88.50
2022-12-01T01:44:58.789Z,88.22
2022-12-01T01:47:32.918Z,87.48
2022-12-01T01:50:06.246Z,87.60
2022-12-01T01:52:35.943Z,87.02
2022-12-01T01:55:02.930Z,87.33
2022-12-01T01:57:33.298Z,87.40
2022-12-01T02:00:08.012Z,87.37
2022-12-01T02:02:40.798Z,87.58
2022-12-01T02:05:11.152Z,87.43
2022-12-01T02:07:39.868Z,87.36
2022-12-01T02:10:09.177Z,87.32
2022-12-01T02:12:54.472Z,87.18
2022-12-01T02:15:39.627Z,86.97
2022-12-01T02:18:43.180Z,85.93
2022-12-01T02:21:44.266Z,86.59
2022-12-01T02:24:25.967Z,86.79
2022-12-01T02:26:58.627Z,86.88
2022-12-01T02:29:56.145Z,86.18
2022-12-01T02:33:04.909Z,86.27
2022-12-01T02:35:40.378Z,86.61
2022-12-01T02:38:16.208Z,87.11
2022-12-01T02:40:48.474Z,87.50
2022-12-01T02:43:49.361Z,88.13
2022-12-01T02:46:25.364Z,86.73
2022-12-01T02:48:55.400Z,87.46
2022-12-01T02:51:29.014Z,87.37
2022-12-01T02:53:58.700Z,86.44
2022-12-01T02:56:25.604Z,86.30
2022-12-01T02:58:52.302Z,86.65
2022-12-01T03:01:33.869Z,85.81
2022-12-01T03:04:31.146Z,86.72
2022-12-01T03:07:00.315Z,88.08
2022-12-01T03:09:38.913Z,88.84
2022-12-01T03:12:41.618Z,88.30
2022-12-01T03:15:29.764Z,87.14
2022-12-01T03:18:28.470Z,85.37
2022-12-01T03:21:26.715Z,84.65
2022-12-01T03:24:01.761Z,83.65
2022-12-01T03:26:32.656Z,84.67
2022-12-01T03:29:05.655Z,85.53
2022-12-01T03:31:37.782Z,85.20
2022-12-01T03:34:12.483Z,84.73
2022-12-01T03:36:50.141Z,85.62
2022-12-01T03:39:23.986Z,85.30
2022-12-01T03:42:06.870Z,85.63
2022-12-01T03:44:42.278Z,87.66
2022-12-01T03:47:17.072Z,88.27
2022-12-01T03:49:45.227Z,88.75
2022-12-01T03:52:49.491Z,88.80
2022-12-01T03:55:29.413Z,88.28
2022-12-01T03:58:11.389Z,88.31
2022-12-01T04:00:39.073Z,87.78
2022-12-01T04:03:06.487Z,87.92
2022-12-01T04:05:34.846Z,86.90
2022-12-01T04:08:02.007Z,87.61
2022-12-01T04:10:28.833Z,88.13
2022-12-01T04:12:59.385Z,88.73
2022-12-01T04:15:27.273Z,89.02
2022-12-01T04:17:54.135Z,88.36
2022-12-01T04:20:21.302Z,87.64
2022-12-01T04:22:48.260Z,87.20
2022-12-01T04:25:14.972Z,87.72
2022-12-01T04:27:41.542Z,88.27
2022-12-01T04:30:09.021Z,88.82
2022-12-01T04:32:42.324Z,89.34
2022-12-01T04:35:11.911Z,89.44
2022-12-01T04:37:39.532Z,89.54
2022-12-01T04:40:07.127Z,90.01
2022-12-01T04:42:33.723Z,89.37
2022-12-01T04:45:00.320Z,89.21
2022-12-01T04:47:26.922Z,89.32
2022-12-01T04:49:54.437Z,87.92
2022-12-01T04:52:20.991Z,87.93
2022-12-01T04:54:47.540Z,88.16
2022-12-01T04:57:14.128Z,87.72
2022-12-01T04:59:40.707Z,87.19
2022-12-01T05:02:07.673Z,87.29
2022-12-01T05:04:38.445Z,86.02
2022-12-01T05:07:05.232Z,86.70
2022-12-01T05:09:31.884Z,87.12
2022-12-01T05:11:58.462Z,86.79
2022-12-01T05:14:25.055Z,86.81
2022-12-01T05:16:51.657Z,87.52
2022-12-01T05:19:36.972Z,88.68
2022-12-01T05:22:03.516Z,89.41
2022-12-01T05:24:30.078Z,89.78
2022-12-01T05:26:56.722Z,89.02
2022-12-01T05:29:23.318Z,88.42
2022-12-01T05:31:49.921Z,88.20
2022-12-01T05:34:16.615Z,88.08
2022-12-01T05:36:43.224Z,88.28
2022-12-01T05:39:09.868Z,88.69
2022-12-01T05:41:36.775Z,90.18
2022-12-01T05:44:03.380Z,89.36
2022-12-01T05:46:29.960Z,88.93
2022-12-01T05:48:56.500Z,89.28
2022-12-01T05:51:23.067Z,89.50
2022-12-01T05:53:50.011Z,89.26
2022-12-01T05:56:16.633Z,88.62
2022-12-01T05:58:43.216Z,88.12
2022-12-01T06:01:09.897Z,87.11
2022-12-01T06:03:36.480Z,88.15
2022-12-01T06:06:03.061Z,87.04
2022-12-01T06:08:29.822Z,87.19
2022-12-01T06:10:56.381Z,86.15
2022-12-01T06:13:23.106Z,86.87
2022-12-01T06:16:01.244Z,87.06
2022-12-01T06:18:30.037Z,87.02
2022-12-01T06:20:56.648Z,88.27
2022-12-01T06:23:27.598Z,88.15
2022-12-01T06:25:56.663Z,88.08
2022-12-01T06:28:23.254Z,88.74
2022-12-01T06:30:49.854Z,89.87
2022-12-01T06:33:16.457Z,88.03
2022-12-01T06:35:43.075Z,87.01
2022-12-01T06:38:09.660Z,87.43
2022-12-01T06:40:36.492Z,88.27
2022-12-01T06:43:03.056Z,88.22
2022-12-01T06:45:30.353Z,87.40
2022-12-01T06:47:57.680Z,87.35
2022-12-01T06:50:25.277Z,88.35
2022-12-01T06:52:52.879Z,89.18
2022-12-01T06:55:19.591Z,87.88
2022-12-01T06:57:46.642Z,88.60
2022-12-01T07:00:14.557Z,87.73
2022-12-01T07:02:41.565Z,86.94
2022-12-01T07:05:08.514Z,86.38
2022-12-01T07:07:41.053Z,86.18
2022-12-01T07:10:09.843Z,86.12
2022-12-01T07:12:36.748Z,84.99
2022-12-01T07:15:04.499Z,84.35
2022-12-01T07:17:31.046Z,84.88
2022-12-01T07:19:58.103Z,84.78
2022-12-01T07:22:29.539Z,85.09
2022-12-01T07:24:58.904Z,84.43
2022-12-01T07:27:25.516Z,84.92
2022-12-01T07:29:52.109Z,85.14
2022-12-01T07:32:18.754Z,82.15
2022-12-01T07:34:45.315Z,81.47
2022-12-01T07:37:11.850Z,81.27
2022-12-01T07:41:32.246Z,82.00
2022-12-01T07:43:58.886Z,82.34
2022-12-01T07:46:27.244Z,82.56
2022-12-01T07:48:54.988Z,82.93
2022-12-01T07:51:23.124Z,82.19
2022-12-01T07:53:50.958Z,80.80
2022-12-01T07:56:18.963Z,79.06
2022-12-01T07:58:45.692Z,78.94
2022-12-01T08:01:24.824Z,79.16
2022-12-01T08:03:53.866Z,77.97
2022-12-01T08:06:21.190Z,77.36
2022-12-01T08:08:47.923Z,76.88
2022-12-01T08:11:17.619Z,76.72
2022-12-01T08:13:44.980Z,77.33
2022-12-01T08:16:14.689Z,77.51
2022-12-01T08:18:42.735Z,74.69
2022-12-01T08:21:11.890Z,74.88
2022-12-01T08:23:38.694Z,74.14
2022-12-01T08:26:08.233Z,72.40
2022-12-01T08:28:38.952Z,69.72
2022-12-01T08:31:12.359Z,65.22
2022-12-01T08:33:39.218Z,65.12
2022-12-01T08:36:06.843Z,64.11
2022-12-01T08:38:33.674Z,62.54
2022-12-01T08:41:05.539Z,62.94
2022-12-01T08:43:56.579Z,61.72
2022-12-01T08:46:18.872Z,62.18
2022-12-01T08:48:45.658Z,61.02
2022-12-01T08:51:18.365Z,60.33
2022-12-01T08:53:47.744Z,48.62
2022-12-01T08:56:21.243Z,58.07
2022-12-01T08:58:48.279Z,62.94
2022-12-01T09:01:16.572Z,59.07
2022-12-01T09:03:44.245Z,56.22
2022-12-01T09:06:16.083Z,51.22
2022-12-01T09:08:43.347Z,50.81
2022-12-01T09:11:16.014Z,61.33
2022-12-01T09:13:43.550Z,52.91
2022-12-01T09:16:17.288Z,51.91
2022-12-01T09:18:45.504Z,60.16
2022-12-01T09:21:21.166Z,46.00
2022-12-01T09:23:48.700Z,55.15
2022-12-01T09:26:18.672Z,47.16
2022-12-01T09:28:46.566Z,54.24
2022-12-01T09:31:15.138Z,55.41
2022-12-01T09:33:41.621Z,45.31
2022-12-01T09:36:09.026Z,52.76
2022-12-01T09:38:37.101Z,49.25
2022-12-01T09:41:18.245Z,51.45
2022-12-01T09:43:54.054Z,50.32
2022-12-01T09:46:26.585Z,49.59
2022-12-01T09:48:57.248Z,49.11
2022-12-01T09:51:26.301Z,49.56
2022-12-01T09:53:59.739Z,51.12
2022-12-01T09:56:27.632Z,50.79
2022-12-01T09:58:57.401Z,49.58
2022-12-01T10:01:44.803Z,50.22
2022-12-01T10:04:46.510Z,38.80
2022-12-01T10:07:21.272Z,46.53
2022-12-01T10:09:52.274Z,49.87
2022-12-01T10:12:22.595Z,48.41
2022-12-01T10:14:49.153Z,50.16
2022-12-01T10:17:15.637Z,54.33
2022-12-01T10:20:02.774Z,45.09
2022-12-01T10:22:49.179Z,53.16
2022-12-01T10:25:21.898Z,55.24
2022-12-01T10:28:06.861Z,44.63
2022-12-01T10:30:39.347Z,51.54
2022-12-01T10:33:34.031Z,49.03
2022-12-01T10:36:00.736Z,53.51
2022-12-01T10:38:31.061Z,49.58
2022-12-01T10:41:01.494Z,50.77
2022-12-01T10:43:57.874Z,45.66
2022-12-01T10:46:32.888Z,45.33
2022-12-01T10:49:06.876Z,48.22
2022-12-01T10:51:56.728Z,38.22
2022-12-01T10:54:40.197Z,40.68
2022-12-01T10:57:14.573Z,44.26
2022-12-01T10:59:53.216Z,44.70
2022-12-01T11:02:22.780Z,45.73
2022-12-01T11:04:59.548Z,46.10
2022-12-01T11:07:43.097Z,40.68
2022-12-01T11:10:17.638Z,43.90
2022-12-01T11:12:52.373Z,49.16
2022-12-01T11:15:28.113Z,41.01
2022-12-01T11:18:03.500Z,44.80
2022-12-01T11:20:38.533Z,41.03
2022-12-01T11:23:29.956Z,41.34
2022-12-01T11:25:58.465Z,46.19
2022-12-01T11:28:25.396Z,42.45
2022-12-01T11:30:58.418Z,40.94
2022-12-01T11:33:25.942Z,45.37
2022-12-01T11:35:52.754Z,44.91
2022-12-01T11:38:30.527Z,48.38
2022-12-01T11:40:58.567Z,38.85
2022-12-01T11:43:29.581Z,46.52
2022-12-01T11:45:58.754Z,47.36
2022-12-01T11:48:30.793Z,51.69
2022-12-01T11:51:37.162Z,36.82
2022-12-01T11:54:23.269Z,40.78
2022-12-01T11:57:17.474Z,48.09
2022-12-01T11:59:38.041Z,50.28
2022-12-01T12:02:23.187Z,46.66
2022-12-01T12:05:04.490Z,37.71
2022-12-01T12:07:55.128Z,35.90
2022-12-01T12:10:41.221Z,51.93
2022-12-01T12:13:46.863Z,39.26
2022-12-01T12:16:57.917Z,39.49
2022-12-01T12:20:12.403Z,39.52
2022-12-01T12:22:57.882Z,51.44
2022-12-01T12:25:46.160Z,49.31
2022-12-01T12:28:12.700Z,47.47
2022-12-01T12:31:01.781Z,44.54
2022-12-01T12:33:59.338Z,43.86
2022-12-01T12:36:52.003Z,45.17
2022-12-01T12:39:32.172Z,49.09
2022-12-01T12:41:58.857Z,48.27
2022-12-01T12:44:37.261Z,51.93
2022-12-01T12:47:25.519Z,45.03
2022-12-01T12:50:12.041Z,38.74
2022-12-01T12:52:45.594Z,41.93
2022-12-01T12:55:37.126Z,43.60
2022-12-01T12:58:13.196Z,45.47
2022-12-01T13:00:48.476Z,42.81
2022-12-01T13:03:23.208Z,46.57
2022-12-01T13:06:01.590Z,42.92
2022-12-01T13:08:38.591Z,43.28
2022-12-01T13:11:20.846Z,41.52
2022-12-01T13:14:17.937Z,42.13
2022-12-01T13:16:48.337Z,40.71
2022-12-01T13:19:35.527Z,41.88
2022-12-01T13:22:03.150Z,43.70
2022-12-01T13:24:31.282Z,44.31
2022-12-01T13:27:03.031Z,42.05
2022-12-01T13:29:37.444Z,42.06
2022-12-01T13:32:28.525Z,41.49
2022-12-01T13:34:55.578Z,42.04
2022-12-01T13:37:34.287Z,42.02
2022-12-01T13:40:09.265Z,42.17
2022-12-01T13:42:37.306Z,44.95
2022-12-01T13:45:19.186Z,44.48
2022-12-01T13:47:54.903Z,43.56
2022-12-01T13:50:43.833Z,41.33
2022-12-01T13:53:19.298Z,43.29
2022-12-01T13:56:05.702Z,42.35
2022-12-01T13:58:32.337Z,43.03
2022-12-01T14:01:20.883Z,42.81
2022-12-01T14:04:18.103Z,43.45
2022-12-01T14:06:49.619Z,43.58
2022-12-01T14:09:35.369Z,43.70
2022-12-01T14:12:06.599Z,44.33
2022-12-01T14:14:38.950Z,44.59
2022-12-01T14:17:06.051Z,45.81
2022-12-01T14:19:32.561Z,46.36
2022-12-01T14:22:01.340Z,45.79
2022-12-01T14:24:40.545Z,46.35
2022-12-01T14:27:11.818Z,46.65
2022-12-01T14:29:42.670Z,46.54
2022-12-01T14:32:09.206Z,47.22
2022-12-01T14:34:37.406Z,47.82
2022-12-01T14:37:11.199Z,48.97
2022-12-01T14:39:43.428Z,49.23
2022-12-01T14:43:00.182Z,49.21
2022-12-01T14:45:45.662Z,50.67
2022-12-01T14:48:21.514Z,50.87
2022-12-01T14:50:51.947Z,51.18
2022-12-01T14:53:24.278Z,51.20
2022-12-01T14:55:58.843Z,50.63
2022-12-01T14:58:31.961Z,50.98
2022-12-01T15:01:11.016Z,50.92
2022-12-01T15:03:45.505Z,51.25
2022-12-01T15:06:20.889Z,50.50
2022-12-01T15:09:32.002Z,49.22
2022-12-01T15:11:54.700Z,49.71
2022-12-01T15:14:22.521Z,49.64
2022-12-01T15:16:49.367Z,50.65
2022-12-01T15:19:35.269Z,50.53
2022-12-01T15:22:16.965Z,52.14
2022-12-01T15:24:44.567Z,52.35
2022-12-01T15:27:32.477Z,52.89
2022-12-01T15:30:04.420Z,54.60
2022-12-01T15:32:37.833Z,54.25
2022-12-01T15:35:05.588Z,55.16
2022-12-01T15:37:42.564Z,53.74
2022-12-01T15:43:14.397Z,60.54
2022-12-01T15:45:56.469Z,62.53
2022-12-01T15:48:32.875Z,64.32
2022-12-01T15:51:01.814Z,65.40
2022-12-01T15:53:32.881Z,64.73
2022-12-01T15:56:01.784Z,64.63
2022-12-01T15:58:36.321Z,65.70
2022-12-01T16:01:12.997Z,67.27
2022-12-01T16:04:14.263Z,67.79
2022-12-01T16:06:41.492Z,67.85
2022-12-01T16:09:28.679Z,70.92
2022-12-01T16:12:22.652Z,77.03
2022-12-01T16:14:50.902Z,78.72
2022-12-01T16:17:17.629Z,76.17
2022-12-01T16:19:45.553Z,77.93
2022-12-01T16:22:14.378Z,78.47
2022-12-01T16:24:48.719Z,78.53
2022-12-01T16:27:28.558Z,79.95
2022-12-01T16:29:57.174Z,78.01
2022-12-01T16:32:29.735Z,77.49
2022-12-01T16:34:56.268Z,79.39
2022-12-01T16:37:23.264Z,79.57
2022-12-01T16:39:50.033Z,80.77
2022-12-01T16:42:18.735Z,81.96
2022-12-01T16:44:46.509Z,80.73
2022-12-01T16:47:19.225Z,77.57
2022-12-01T16:49:45.978Z,79.94
